sensor_id;sensor_type;location;lat;lon;timestamp;P1;durP1;ratioP1;P2;durP2;ratioP2
25279;SDS011;13225;47.804;12.116;2023-03-09T00:02:22;10.38;;;4.93;;
25279;SDS011;13225;47.804;12.116;2023-03-09T00:04:48;9.95;;;5.50;;
25279;SDS011;13225;47.804;12.116;2023-03-09T00:07:14;8.75;;;5.80;;
25279;SDS011;13225;47.804;12.116;2023-03-09T00:09:39;11.32;;;5.45;;
25279;SDS011;13225;47.804;12.116;2023-03-09T00:12:05;9.88;;;4.85;;
25279;SDS011;13225;47.804;12.116;2023-03-09T00:14:31;9.23;;;4.95;;
25279;SDS011;13225;47.804;12.116;2023-03-09T00:16:56;8.45;;;4.63;;
25279;SDS011;13225;47.804;12.116;2023-03-09T00:19:22;7.30;;;4.78;;
25279;SDS011;13225;47.804;12.116;2023-03-09T00:21:52;7.55;;;4.88;;
25279;SDS011;13225;47.804;12.116;2023-03-09T00:24:23;7.53;;;4.47;;
25279;SDS011;13225;47.804;12.116;2023-03-09T00:26:57;10.63;;;5.15;;
25279;SDS011;13225;47.804;12.116;2023-03-09T00:29:24;8.85;;;4.90;;
25279;SDS011;13225;47.804;12.116;2023-03-09T00:31:51;8.35;;;4.40;;
25279;SDS011;13225;47.804;12.116;2023-03-09T00:34:17;8.10;;;4.57;;
25279;SDS011;13225;47.804;12.116;2023-03-09T00:36:43;8.48;;;4.25;;
25279;SDS011;13225;47.804;12.116;2023-03-09T00:39:11;8.30;;;5.15;;
25279;SDS011;13225;47.804;12.116;2023-03-09T00:41:38;10.38;;;6.25;;
25279;SDS011;13225;47.804;12.116;2023-03-09T00:44:04;7.25;;;4.65;;
25279;SDS011;13225;47.804;12.116;2023-03-09T00:46:30;6.88;;;4.43;;
25279;SDS011;13225;47.804;12.116;2023-03-09T00:48:56;8.02;;;4.65;;
25279;SDS011;13225;47.804;12.116;2023-03-09T00:51:23;8.50;;;5.03;;
25279;SDS011;13225;47.804;12.116;2023-03-09T00:53:49;8.75;;;4.72;;
25279;SDS011;13225;47.804;12.116;2023-03-09T00:56:16;11.10;;;4.97;;
25279;SDS011;13225;47.804;12.116;2023-03-09T00:58:44;7.85;;;4.40;;
25279;SDS011;13225;47.804;12.116;2023-03-09T01:01:10;8.70;;;4.85;;
25279;SDS011;13225;47.804;12.116;2023-03-09T01:03:38;8.38;;;4.53;;
25279;SDS011;13225;47.804;12.116;2023-03-09T01:06:05;6.40;;;4.63;;
25279;SDS011;13225;47.804;12.116;2023-03-09T01:08:31;8.52;;;4.57;;
25279;SDS011;13225;47.804;12.116;2023-03-09T01:10:57;7.93;;;5.00;;
25279;SDS011;13225;47.804;12.116;2023-03-09T01:13:23;10.48;;;5.28;;
25279;SDS011;13225;47.804;12.116;2023-03-09T01:15:48;9.93;;;5.15;;
25279;SDS011;13225;47.804;12.116;2023-03-09T01:18:14;8.35;;;4.55;;
25279;SDS011;13225;47.804;12.116;2023-03-09T01:20:39;9.35;;;4.78;;
25279;SDS011;13225;47.804;12.116;2023-03-09T01:23:06;13.68;;;5.15;;
25279;SDS011;13225;47.804;12.116;2023-03-09T01:25:31;11.55;;;5.97;;
25279;SDS011;13225;47.804;12.116;2023-03-09T01:27:57;8.73;;;5.10;;
25279;SDS011;13225;47.804;12.116;2023-03-09T01:30:23;9.35;;;5.72;;
25279;SDS011;13225;47.804;12.116;2023-03-09T01:32:48;8.70;;;5.00;;
25279;SDS011;13225;47.804;12.116;2023-03-09T01:35:14;10.77;;;5.32;;
25279;SDS011;13225;47.804;12.116;2023-03-09T01:37:40;9.48;;;5.15;;
25279;SDS011;13225;47.804;12.116;2023-03-09T01:40:06;10.40;;;4.13;;
25279;SDS011;13225;47.804;12.116;2023-03-09T01:42:33;11.40;;;4.95;;
25279;SDS011;13225;47.804;12.116;2023-03-09T01:46:13;8.38;;;5.43;;
25279;SDS011;13225;47.804;12.116;2023-03-09T01:47:56;9.52;;;4.72;;
25279;SDS011;13225;47.804;12.116;2023-03-09T01:50:28;7.90;;;4.25;;
25279;SDS011;13225;47.804;12.116;2023-03-09T01:52:59;6.93;;;4.25;;
25279;SDS011;13225;47.804;12.116;2023-03-09T01:55:33;8.23;;;4.70;;
25279;SDS011;13225;47.804;12.116;2023-03-09T01:58:04;7.82;;;4.60;;
25279;SDS011;13225;47.804;12.116;2023-03-09T02:00:34;8.90;;;4.57;;
25279;SDS011;13225;47.804;12.116;2023-03-09T02:03:09;6.88;;;4.28;;
25279;SDS011;13225;47.804;12.116;2023-03-09T02:06:03;6.88;;;4.40;;
25279;SDS011;13225;47.804;12.116;2023-03-09T02:08:36;9.63;;;4.93;;
25279;SDS011;13225;47.804;12.116;2023-03-09T02:11:06;8.02;;;3.78;;
25279;SDS011;13225;47.804;12.116;2023-03-09T02:13:35;3.47;;;2.25;;
25279;SDS011;13225;47.804;12.116;2023-03-09T02:16:03;2.65;;;2.00;;
25279;SDS011;13225;47.804;12.116;2023-03-09T02:18:29;3.13;;;2.10;;
25279;SDS011;13225;47.804;12.116;2023-03-09T02:23:30;2.83;;;1.98;;
25279;SDS011;13225;47.804;12.116;2023-03-09T02:29:11;4.07;;;2.80;;
25279;SDS011;13225;47.804;12.116;2023-03-09T02:31:38;4.78;;;2.97;;
25279;SDS011;13225;47.804;12.116;2023-03-09T02:34:04;4.45;;;3.00;;
25279;SDS011;13225;47.804;12.116;2023-03-09T02:36:30;6.10;;;3.30;;
25279;SDS011;13225;47.804;12.116;2023-03-09T02:38:56;4.45;;;2.78;;
25279;SDS011;13225;47.804;12.116;2023-03-09T02:41:31;4.45;;;3.15;;
25279;SDS011;13225;47.804;12.116;2023-03-09T02:43:57;5.78;;;2.97;;
25279;SDS011;13225;47.804;12.116;2023-03-09T02:46:24;4.50;;;3.20;;
25279;SDS011;13225;47.804;12.116;2023-03-09T02:48:49;6.35;;;2.78;;
25279;SDS011;13225;47.804;12.116;2023-03-09T02:51:15;3.65;;;2.65;;
25279;SDS011;13225;47.804;12.116;2023-03-09T02:53:41;3.58;;;2.53;;
25279;SDS011;13225;47.804;12.116;2023-03-09T02:56:07;4.32;;;2.80;;
25279;SDS011;13225;47.804;12.116;2023-03-09T02:58:33;4.10;;;2.50;;
25279;SDS011;13225;47.804;12.116;2023-03-09T03:01:00;2.83;;;2.20;;
25279;SDS011;13225;47.804;12.116;2023-03-09T03:03:25;3.10;;;1.80;;
25279;SDS011;13225;47.804;12.116;2023-03-09T03:05:51;2.88;;;2.20;;
25279;SDS011;13225;47.804;12.116;2023-03-09T03:08:16;2.25;;;2.03;;
25279;SDS011;13225;47.804;12.116;2023-03-09T03:10:42;3.28;;;2.00;;
25279;SDS011;13225;47.804;12.116;2023-03-09T03:13:08;2.38;;;1.77;;
25279;SDS011;13225;47.804;12.116;2023-03-09T03:15:33;4.20;;;1.73;;
25279;SDS011;13225;47.804;12.116;2023-03-09T03:17:59;1.90;;;1.52;;
25279;SDS011;13225;47.804;12.116;2023-03-09T03:20:25;3.22;;;1.92;;
25279;SDS011;13225;47.804;12.116;2023-03-09T03:22:51;2.10;;;1.45;;
25279;SDS011;13225;47.804;12.116;2023-03-09T03:25:17;2.45;;;1.67;;
25279;SDS011;13225;47.804;12.116;2023-03-09T03:27:43;0.70;;;0.70;;
25279;SDS011;13225;47.804;12.116;2023-03-09T03:30:10;1.00;;;0.60;;
25279;SDS011;13225;47.804;12.116;2023-03-09T03:32:37;0.95;;;0.50;;
25279;SDS011;13225;47.804;12.116;2023-03-09T03:35:03;2.17;;;0.82;;
25279;SDS011;13225;47.804;12.116;2023-03-09T03:37:29;1.23;;;0.90;;
25279;SDS011;13225;47.804;12.116;2023-03-09T03:39:55;1.90;;;1.42;;
25279;SDS011;13225;47.804;12.116;2023-03-09T03:42:21;3.70;;;2.28;;
25279;SDS011;13225;47.804;12.116;2023-03-09T03:44:46;5.57;;;2.97;;
25279;SDS011;13225;47.804;12.116;2023-03-09T03:47:12;3.72;;;2.38;;
25279;SDS011;13225;47.804;12.116;2023-03-09T03:49:38;4.65;;;3.03;;
25279;SDS011;13225;47.804;12.116;2023-03-09T03:52:03;6.30;;;3.78;;
25279;SDS011;13225;47.804;12.116;2023-03-09T03:54:29;7.50;;;4.70;;
25279;SDS011;13225;47.804;12.116;2023-03-09T03:56:55;6.57;;;4.35;;
25279;SDS011;13225;47.804;12.116;2023-03-09T03:59:20;7.97;;;4.90;;
25279;SDS011;13225;47.804;12.116;2023-03-09T04:01:46;11.85;;;5.47;;
25279;SDS011;13225;47.804;12.116;2023-03-09T04:04:11;7.50;;;4.65;;
25279;SDS011;13225;47.804;12.116;2023-03-09T04:06:37;7.97;;;4.63;;
25279;SDS011;13225;47.804;12.116;2023-03-09T04:09:03;7.65;;;5.03;;
25279;SDS011;13225;47.804;12.116;2023-03-09T04:11:29;8.20;;;4.70;;
25279;SDS011;13225;47.804;12.116;2023-03-09T04:13:55;6.53;;;4.40;;
25279;SDS011;13225;47.804;12.116;2023-03-09T04:16:21;6.90;;;4.70;;
25279;SDS011;13225;47.804;12.116;2023-03-09T04:18:46;9.32;;;4.60;;
25279;SDS011;13225;47.804;12.116;2023-03-09T04:21:12;9.70;;;4.85;;
25279;SDS011;13225;47.804;12.116;2023-03-09T04:23:38;8.38;;;4.50;;
25279;SDS011;13225;47.804;12.116;2023-03-09T04:26:04;8.20;;;4.93;;
25279;SDS011;13225;47.804;12.116;2023-03-09T04:28:30;6.60;;;4.50;;
25279;SDS011;13225;47.804;12.116;2023-03-09T04:30:56;8.25;;;4.65;;
25279;SDS011;13225;47.804;12.116;2023-03-09T04:33:21;8.65;;;4.60;;
25279;SDS011;13225;47.804;12.116;2023-03-09T04:35:47;8.07;;;4.60;;
25279;SDS011;13225;47.804;12.116;2023-03-09T04:38:13;8.70;;;4.80;;
25279;SDS011;13225;47.804;12.116;2023-03-09T04:40:39;10.75;;;4.93;;
25279;SDS011;13225;47.804;12.116;2023-03-09T04:43:05;10.98;;;5.28;;
25279;SDS011;13225;47.804;12.116;2023-03-09T04:45:31;8.50;;;4.88;;
25279;SDS011;13225;47.804;12.116;2023-03-09T04:47:56;8.00;;;5.20;;
25279;SDS011;13225;47.804;12.116;2023-03-09T04:50:22;10.88;;;5.88;;
25279;SDS011;13225;47.804;12.116;2023-03-09T04:52:48;10.32;;;5.57;;
25279;SDS011;13225;47.804;12.116;2023-03-09T04:55:15;9.57;;;5.95;;
25279;SDS011;13225;47.804;12.116;2023-03-09T04:57:41;8.32;;;5.05;;
25279;SDS011;13225;47.804;12.116;2023-03-09T05:00:07;12.02;;;5.60;;
25279;SDS011;13225;47.804;12.116;2023-03-09T05:02:39;10.23;;;5.97;;
25279;SDS011;13225;47.804;12.116;2023-03-09T05:05:07;9.02;;;5.47;;
25279;SDS011;13225;47.804;12.116;2023-03-09T05:07:34;7.03;;;4.20;;
25279;SDS011;13225;47.804;12.116;2023-03-09T05:09:59;8.73;;;4.25;;
25279;SDS011;13225;47.804;12.116;2023-03-09T05:12:25;5.72;;;4.20;;
25279;SDS011;13225;47.804;12.116;2023-03-09T05:14:59;8.35;;;5.07;;
25279;SDS011;13225;47.804;12.116;2023-03-09T05:17:25;8.35;;;5.20;;
25279;SDS011;13225;47.804;12.116;2023-03-09T05:19:52;8.82;;;5.05;;
25279;SDS011;13225;47.804;12.116;2023-03-09T05:22:18;8.90;;;4.95;;
25279;SDS011;13225;47.804;12.116;2023-03-09T05:24:44;7.68;;;4.85;;
25279;SDS011;13225;47.804;12.116;2023-03-09T05:27:09;8.35;;;4.80;;
25279;SDS011;13225;47.804;12.116;2023-03-09T05:29:37;9.15;;;5.22;;
25279;SDS011;13225;47.804;12.116;2023-03-09T05:32:03;8.73;;;5.03;;
25279;SDS011;13225;47.804;12.116;2023-03-09T05:34:29;8.55;;;4.60;;
25279;SDS011;13225;47.804;12.116;2023-03-09T05:36:55;8.57;;;5.13;;
25279;SDS011;13225;47.804;12.116;2023-03-09T05:39:21;6.38;;;4.60;;
25279;SDS011;13225;47.804;12.116;2023-03-09T05:41:46;7.57;;;4.90;;
25279;SDS011;13225;47.804;12.116;2023-03-09T05:44:12;8.05;;;5.10;;
25279;SDS011;13225;47.804;12.116;2023-03-09T05:46:38;9.20;;;5.18;;
25279;SDS011;13225;47.804;12.116;2023-03-09T05:49:04;7.10;;;4.93;;
25279;SDS011;13225;47.804;12.116;2023-03-09T05:51:30;10.05;;;5.00;;
25279;SDS011;13225;47.804;12.116;2023-03-09T05:53:55;8.23;;;4.50;;
25279;SDS011;13225;47.804;12.116;2023-03-09T05:56:21;27.20;;;9.68;;
25279;SDS011;13225;47.804;12.116;2023-03-09T05:58:48;41.85;;;15.98;;
25279;SDS011;13225;47.804;12.116;2023-03-09T06:01:20;7.30;;;5.05;;
25279;SDS011;13225;47.804;12.116;2023-03-09T06:03:47;11.80;;;4.18;;
25279;SDS011;13225;47.804;12.116;2023-03-09T06:06:14;5.22;;;1.27;;
25279;SDS011;13225;47.804;12.116;2023-03-09T06:08:39;3.50;;;0.98;;
25279;SDS011;13225;47.804;12.116;2023-03-09T06:11:05;0.73;;;0.45;;
25279;SDS011;13225;47.804;12.116;2023-03-09T06:13:31;0.55;;;0.32;;
25279;SDS011;13225;47.804;12.116;2023-03-09T06:15:56;1.08;;;0.30;;
25279;SDS011;13225;47.804;12.116;2023-03-09T06:18:22;0.38;;;0.20;;
25279;SDS011;13225;47.804;12.116;2023-03-09T06:20:48;0.30;;;0.20;;
25279;SDS011;13225;47.804;12.116;2023-03-09T06:23:14;0.98;;;0.20;;
25279;SDS011;13225;47.804;12.116;2023-03-09T06:25:40;0.03;;;0.03;;
25279;SDS011;13225;47.804;12.116;2023-03-09T06:28:06;0.10;;;0.10;;
25279;SDS011;13225;47.804;12.116;2023-03-09T06:30:31;0.20;;;0.20;;
25279;SDS011;13225;47.804;12.116;2023-03-09T06:32:57;0.20;;;0.20;;
25279;SDS011;13225;47.804;12.116;2023-03-09T06:35:23;2.20;;;0.30;;
25279;SDS011;13225;47.804;12.116;2023-03-09T06:37:49;0.55;;;0.30;;
25279;SDS011;13225;47.804;12.116;2023-03-09T06:40:15;1.45;;;0.40;;
25279;SDS011;13225;47.804;12.116;2023-03-09T06:42:41;0.75;;;0.28;;
25279;SDS011;13225;47.804;12.116;2023-03-09T06:45:07;0.10;;;0.10;;
25279;SDS011;13225;47.804;12.116;2023-03-09T06:47:33;0.90;;;0.20;;
25279;SDS011;13225;47.804;12.116;2023-03-09T06:49:59;2.00;;;0.30;;
25279;SDS011;13225;47.804;12.116;2023-03-09T06:52:24;0.30;;;0.20;;
25279;SDS011;13225;47.804;12.116;2023-03-09T06:54:50;0.30;;;0.25;;
25279;SDS011;13225;47.804;12.116;2023-03-09T06:57:16;0.93;;;0.60;;
25279;SDS011;13225;47.804;12.116;2023-03-09T06:59:42;0.30;;;0.20;;
25279;SDS011;13225;47.804;12.116;2023-03-09T07:02:11;0.38;;;0.35;;
25279;SDS011;13225;47.804;12.116;2023-03-09T07:04:38;0.30;;;0.30;;
25279;SDS011;13225;47.804;12.116;2023-03-09T07:07:05;1.73;;;0.88;;
25279;SDS011;13225;47.804;12.116;2023-03-09T07:09:30;0.50;;;0.40;;
25279;SDS011;13225;47.804;12.116;2023-03-09T07:11:57;0.35;;;0.35;;
25279;SDS011;13225;47.804;12.116;2023-03-09T07:14:23;0.52;;;0.15;;
25279;SDS011;13225;47.804;12.116;2023-03-09T07:16:53;0.35;;;0.35;;
25279;SDS011;13225;47.804;12.116;2023-03-09T07:19:19;0.50;;;0.30;;
25279;SDS011;13225;47.804;12.116;2023-03-09T07:21:45;0.75;;;0.40;;
25279;SDS011;13225;47.804;12.116;2023-03-09T07:24:11;0.57;;;0.20;;
25279;SDS011;13225;47.804;12.116;2023-03-09T07:26:37;0.13;;;0.13;;
25279;SDS011;13225;47.804;12.116;2023-03-09T07:29:03;1.25;;;0.25;;
25279;SDS011;13225;47.804;12.116;2023-03-09T07:31:28;0.25;;;0.25;;
25279;SDS011;13225;47.804;12.116;2023-03-09T07:33:58;0.28;;;0.25;;
25279;SDS011;13225;47.804;12.116;2023-03-09T07:36:24;0.40;;;0.20;;
25279;SDS011;13225;47.804;12.116;2023-03-09T07:38:50;0.47;;;0.20;;
25279;SDS011;13225;47.804;12.116;2023-03-09T07:41:16;1.23;;;0.60;;
25279;SDS011;13225;47.804;12.116;2023-03-09T07:43:42;0.30;;;0.30;;
25279;SDS011;13225;47.804;12.116;2023-03-09T07:46:12;1.10;;;0.30;;
25279;SDS011;13225;47.804;12.116;2023-03-09T07:48:41;0.10;;;0.10;;
25279;SDS011;13225;47.804;12.116;2023-03-09T07:51:07;0.40;;;0.40;;
25279;SDS011;13225;47.804;12.116;2023-03-09T07:53:34;0.30;;;0.30;;
25279;SDS011;13225;47.804;12.116;2023-03-09T07:56:02;0.55;;;0.50;;
25279;SDS011;13225;47.804;12.116;2023-03-09T07:58:28;0.30;;;0.30;;
25279;SDS011;13225;47.804;12.116;2023-03-09T08:00:55;0.20;;;0.20;;
25279;SDS011;13225;47.804;12.116;2023-03-09T08:03:21;0.55;;;0.28;;
25279;SDS011;13225;47.804;12.116;2023-03-09T08:05:47;0.40;;;0.20;;
25279;SDS011;13225;47.804;12.116;2023-03-09T08:08:14;0.80;;;0.20;;
25279;SDS011;13225;47.804;12.116;2023-03-09T08:10:45;0.13;;;0.13;;
25279;SDS011;13225;47.804;12.116;2023-03-09T08:13:12;1.65;;;0.20;;
25279;SDS011;13225;47.804;12.116;2023-03-09T08:15:38;0.40;;;0.20;;
25279;SDS011;13225;47.804;12.116;2023-03-09T08:18:04;0.50;;;0.43;;
25279;SDS011;13225;47.804;12.116;2023-03-09T08:20:30;2.35;;;0.50;;
25279;SDS011;13225;47.804;12.116;2023-03-09T08:22:56;1.90;;;0.45;;
25279;SDS011;13225;47.804;12.116;2023-03-09T08:25:22;0.28;;;0.20;;
25279;SDS011;13225;47.804;12.116;2023-03-09T08:27:47;0.85;;;0.50;;
25279;SDS011;13225;47.804;12.116;2023-03-09T08:30:14;1.45;;;0.32;;
25279;SDS011;13225;47.804;12.116;2023-03-09T08:32:41;2.80;;;0.63;;
25279;SDS011;13225;47.804;12.116;2023-03-09T08:35:07;2.53;;;0.50;;
25279;SDS011;13225;47.804;12.116;2023-03-09T08:37:34;1.40;;;0.65;;
25279;SDS011;13225;47.804;12.116;2023-03-09T08:39:59;1.15;;;0.52;;
25279;SDS011;13225;47.804;12.116;2023-03-09T08:42:25;3.10;;;0.70;;
25279;SDS011;13225;47.804;12.116;2023-03-09T08:44:51;1.23;;;0.40;;
25279;SDS011;13225;47.804;12.116;2023-03-09T08:47:17;0.98;;;0.30;;
25279;SDS011;13225;47.804;12.116;2023-03-09T08:49:43;2.72;;;0.68;;
25279;SDS011;13225;47.804;12.116;2023-03-09T08:52:08;1.80;;;0.32;;
25279;SDS011;13225;47.804;12.116;2023-03-09T08:54:35;1.13;;;0.45;;
25279;SDS011;13225;47.804;12.116;2023-03-09T08:57:01;1.00;;;0.60;;
25279;SDS011;13225;47.804;12.116;2023-03-09T08:59:26;1.83;;;0.60;;
25279;SDS011;13225;47.804;12.116;2023-03-09T09:01:52;1.38;;;0.43;;
25279;SDS011;13225;47.804;12.116;2023-03-09T09:04:17;1.98;;;0.43;;
25279;SDS011;13225;47.804;12.116;2023-03-09T09:06:43;4.18;;;0.82;;
25279;SDS011;13225;47.804;12.116;2023-03-09T09:09:08;1.90;;;0.47;;
25279;SDS011;13225;47.804;12.116;2023-03-09T09:11:34;4.25;;;0.63;;
25279;SDS011;13225;47.804;12.116;2023-03-09T09:14:00;0.88;;;0.40;;
25279;SDS011;13225;47.804;12.116;2023-03-09T09:16:25;2.15;;;0.43;;
25279;SDS011;13225;47.804;12.116;2023-03-09T09:18:54;1.80;;;0.52;;
25279;SDS011;13225;47.804;12.116;2023-03-09T09:21:19;1.23;;;0.40;;
25279;SDS011;13225;47.804;12.116;2023-03-09T09:23:45;3.28;;;0.70;;
25279;SDS011;13225;47.804;12.116;2023-03-09T09:26:11;1.73;;;0.35;;
25279;SDS011;13225;47.804;12.116;2023-03-09T09:28:38;2.35;;;0.50;;
25279;SDS011;13225;47.804;12.116;2023-03-09T09:31:05;2.05;;;0.60;;
25279;SDS011;13225;47.804;12.116;2023-03-09T09:33:31;3.15;;;0.65;;
25279;SDS011;13225;47.804;12.116;2023-03-09T09:36:00;7.43;;;1.52;;
25279;SDS011;13225;47.804;12.116;2023-03-09T09:38:29;1.55;;;0.50;;
25279;SDS011;13225;47.804;12.116;2023-03-09T09:40:57;1.05;;;0.40;;
25279;SDS011;13225;47.804;12.116;2023-03-09T09:43:27;1.35;;;0.30;;
25279;SDS011;13225;47.804;12.116;2023-03-09T09:45:55;1.20;;;0.45;;
25279;SDS011;13225;47.804;12.116;2023-03-09T09:48:24;0.93;;;0.10;;
25279;SDS011;13225;47.804;12.116;2023-03-09T09:56:20;1.50;;;0.40;;
25279;SDS011;13225;47.804;12.116;2023-03-09T09:59:00;1.65;;;0.55;;
25279;SDS011;13225;47.804;12.116;2023-03-09T10:01:33;2.65;;;0.55;;
25279;SDS011;13225;47.804;12.116;2023-03-09T10:04:21;0.95;;;0.60;;
25279;SDS011;13225;47.804;12.116;2023-03-09T10:07:15;0.10;;;0.10;;
25279;SDS011;13225;47.804;12.116;2023-03-09T10:09:43;1.17;;;0.30;;
25279;SDS011;13225;47.804;12.116;2023-03-09T10:12:24;1.25;;;0.52;;
25279;SDS011;13225;47.804;12.116;2023-03-09T10:19:54;0.82;;;0.25;;
25279;SDS011;13225;47.804;12.116;2023-03-09T10:22:33;0.10;;;0.10;;
25279;SDS011;13225;47.804;12.116;2023-03-09T10:24:59;1.90;;;1.10;;
25279;SDS011;13225;47.804;12.116;2023-03-09T10:27:30;0.30;;;0.20;;
25279;SDS011;13225;47.804;12.116;2023-03-09T10:30:13;0.40;;;0.22;;
25279;SDS011;13225;47.804;12.116;2023-03-09T10:35:19;1.88;;;0.22;;
25279;SDS011;13225;47.804;12.116;2023-03-09T10:37:59;2.83;;;0.30;;
25279;SDS011;13225;47.804;12.116;2023-03-09T10:40:30;4.03;;;0.30;;
25279;SDS011;13225;47.804;12.116;2023-03-09T10:42:59;1.27;;;0.30;;
25279;SDS011;13225;47.804;12.116;2023-03-09T10:45:26;1.02;;;0.30;;
25279;SDS011;13225;47.804;12.116;2023-03-09T10:47:55;0.73;;;0.20;;
25279;SDS011;13225;47.804;12.116;2023-03-09T10:50:34;1.80;;;0.40;;
25279;SDS011;13225;47.804;12.116;2023-03-09T10:53:24;2.00;;;0.45;;
25279;SDS011;13225;47.804;12.116;2023-03-09T10:55:51;0.32;;;0.30;;
25279;SDS011;13225;47.804;12.116;2023-03-09T10:58:27;0.43;;;0.43;;
25279;SDS011;13225;47.804;12.116;2023-03-09T11:01:03;1.25;;;0.32;;
25279;SDS011;13225;47.804;12.116;2023-03-09T11:03:31;3.63;;;0.50;;
25279;SDS011;13225;47.804;12.116;2023-03-09T11:06:24;1.95;;;0.40;;
25279;SDS011;13225;47.804;12.116;2023-03-09T11:11:38;1.75;;;0.60;;
25279;SDS011;13225;47.804;12.116;2023-03-09T11:14:05;0.35;;;0.25;;
25279;SDS011;13225;47.804;12.116;2023-03-09T11:16:50;1.13;;;0.47;;
25279;SDS011;13225;47.804;12.116;2023-03-09T11:19:18;3.25;;;0.50;;
25279;SDS011;13225;47.804;12.116;2023-03-09T11:24:22;3.55;;;0.60;;
25279;SDS011;13225;47.804;12.116;2023-03-09T11:27:24;2.53;;;0.60;;
25279;SDS011;13225;47.804;12.116;2023-03-09T11:30:07;0.55;;;0.40;;
25279;SDS011;13225;47.804;12.116;2023-03-09T11:32:39;2.17;;;0.63;;
25279;SDS011;13225;47.804;12.116;2023-03-09T11:35:05;2.20;;;0.60;;
25279;SDS011;13225;47.804;12.116;2023-03-09T11:45:23;2.85;;;1.17;;
25279;SDS011;13225;47.804;12.116;2023-03-09T11:48:00;1.70;;;0.63;;
25279;SDS011;13225;47.804;12.116;2023-03-09T11:50:36;0.85;;;0.57;;
25279;SDS011;13225;47.804;12.116;2023-03-09T11:53:14;1.40;;;0.65;;
25279;SDS011;13225;47.804;12.116;2023-03-09T11:55:48;0.90;;;0.40;;
25279;SDS011;13225;47.804;12.116;2023-03-09T11:58:22;2.50;;;1.00;;
25279;SDS011;13225;47.804;12.116;2023-03-09T12:00:55;2.25;;;1.13;;
25279;SDS011;13225;47.804;12.116;2023-03-09T12:03:32;9.82;;;0.60;;
25279;SDS011;13225;47.804;12.116;2023-03-09T12:06:13;2.65;;;0.60;;
25279;SDS011;13225;47.804;12.116;2023-03-09T12:08:52;1.25;;;0.50;;
25279;SDS011;13225;47.804;12.116;2023-03-09T12:11:22;0.85;;;0.40;;
25279;SDS011;13225;47.804;12.116;2023-03-09T12:13:57;2.88;;;0.40;;
25279;SDS011;13225;47.804;12.116;2023-03-09T12:16:29;1.98;;;0.60;;
25279;SDS011;13225;47.804;12.116;2023-03-09T12:21:34;1.80;;;0.40;;
25279;SDS011;13225;47.804;12.116;2023-03-09T12:26:55;3.03;;;0.47;;
25279;SDS011;13225;47.804;12.116;2023-03-09T12:29:23;0.80;;;0.40;;
25279;SDS011;13225;47.804;12.116;2023-03-09T12:34:41;3.08;;;0.47;;
25279;SDS011;13225;47.804;12.116;2023-03-09T12:42:40;1.48;;;0.40;;
25279;SDS011;13225;47.804;12.116;2023-03-09T12:47:47;0.45;;;0.40;;
25279;SDS011;13225;47.804;12.116;2023-03-09T13:03:22;1.63;;;0.70;;
25279;SDS011;13225;47.804;12.116;2023-03-09T13:05:50;1.75;;;0.60;;
25279;SDS011;13225;47.804;12.116;2023-03-09T13:08:21;0.90;;;0.50;;
25279;SDS011;13225;47.804;12.116;2023-03-09T13:13:49;1.08;;;0.40;;
25279;SDS011;13225;47.804;12.116;2023-03-09T13:24:34;0.98;;;0.50;;
25279;SDS011;13225;47.804;12.116;2023-03-09T13:27:06;0.40;;;0.40;;
25279;SDS011;13225;47.804;12.116;2023-03-09T13:29:57;0.93;;;0.40;;
25279;SDS011;13225;47.804;12.116;2023-03-09T13:32:36;2.15;;;0.60;;
25279;SDS011;13225;47.804;12.116;2023-03-09T13:35:28;2.08;;;0.47;;
25279;SDS011;13225;47.804;12.116;2023-03-09T13:38:32;1.33;;;0.30;;
25279;SDS011;13225;47.804;12.116;2023-03-09T13:41:00;1.52;;;0.65;;
25279;SDS011;13225;47.804;12.116;2023-03-09T13:43:35;2.05;;;0.35;;
25279;SDS011;13225;47.804;12.116;2023-03-09T13:46:02;2.28;;;0.50;;
25279;SDS011;13225;47.804;12.116;2023-03-09T13:48:36;1.33;;;0.60;;
25279;SDS011;13225;47.804;12.116;2023-03-09T13:51:20;1.85;;;0.60;;
25279;SDS011;13225;47.804;12.116;2023-03-09T13:54:02;6.38;;;0.60;;
25279;SDS011;13225;47.804;12.116;2023-03-09T13:56:28;1.95;;;0.50;;
25279;SDS011;13225;47.804;12.116;2023-03-09T13:58:56;2.40;;;0.75;;
25279;SDS011;13225;47.804;12.116;2023-03-09T14:01:26;2.50;;;0.55;;
25279;SDS011;13225;47.804;12.116;2023-03-09T14:03:54;2.42;;;0.50;;
25279;SDS011;13225;47.804;12.116;2023-03-09T14:06:35;2.42;;;0.60;;
25279;SDS011;13225;47.804;12.116;2023-03-09T14:11:51;2.25;;;0.77;;
25279;SDS011;13225;47.804;12.116;2023-03-09T14:14:18;2.08;;;0.75;;
25279;SDS011;13225;47.804;12.116;2023-03-09T14:16:46;1.05;;;0.40;;
25279;SDS011;13225;47.804;12.116;2023-03-09T14:19:19;1.58;;;0.70;;
25279;SDS011;13225;47.804;12.116;2023-03-09T14:21:54;1.73;;;0.60;;
25279;SDS011;13225;47.804;12.116;2023-03-09T14:24:22;1.95;;;0.57;;
25279;SDS011;13225;47.804;12.116;2023-03-09T14:26:50;3.63;;;0.80;;
25279;SDS011;13225;47.804;12.116;2023-03-09T14:34:56;1.00;;;0.47;;
25279;SDS011;13225;47.804;12.116;2023-03-09T14:37:37;2.13;;;0.60;;
25279;SDS011;13225;47.804;12.116;2023-03-09T14:40:14;1.40;;;0.60;;
25279;SDS011;13225;47.804;12.116;2023-03-09T14:42:48;3.67;;;0.57;;
25279;SDS011;13225;47.804;12.116;2023-03-09T14:47:39;1.25;;;0.68;;
25279;SDS011;13225;47.804;12.116;2023-03-09T14:50:06;1.23;;;0.40;;
25279;SDS011;13225;47.804;12.116;2023-03-09T14:52:37;2.67;;;0.45;;
25279;SDS011;13225;47.804;12.116;2023-03-09T14:57:59;2.60;;;0.50;;
25279;SDS011;13225;47.804;12.116;2023-03-09T15:00:25;2.92;;;0.57;;
25279;SDS011;13225;47.804;12.116;2023-03-09T15:02:51;0.60;;;0.43;;
25279;SDS011;13225;47.804;12.116;2023-03-09T15:05:18;3.80;;;0.65;;
25279;SDS011;13225;47.804;12.116;2023-03-09T15:07:45;1.38;;;0.50;;
25279;SDS011;13225;47.804;12.116;2023-03-09T15:10:11;4.78;;;0.50;;
25279;SDS011;13225;47.804;12.116;2023-03-09T15:12:37;1.15;;;0.55;;
25279;SDS011;13225;47.804;12.116;2023-03-09T15:15:08;2.30;;;0.60;;
25279;SDS011;13225;47.804;12.116;2023-03-09T15:17:55;2.05;;;0.50;;
25279;SDS011;13225;47.804;12.116;2023-03-09T15:20:22;2.20;;;1.30;;
25279;SDS011;13225;47.804;12.116;2023-03-09T15:22:48;5.93;;;0.90;;
25279;SDS011;13225;47.804;12.116;2023-03-09T15:25:15;1.13;;;0.70;;
25279;SDS011;13225;47.804;12.116;2023-03-09T15:27:43;1.55;;;0.60;;
25279;SDS011;13225;47.804;12.116;2023-03-09T15:30:13;1.77;;;0.80;;
25279;SDS011;13225;47.804;12.116;2023-03-09T15:32:41;2.47;;;0.60;;
25279;SDS011;13225;47.804;12.116;2023-03-09T15:35:07;2.33;;;0.60;;
25279;SDS011;13225;47.804;12.116;2023-03-09T15:37:37;1.92;;;0.50;;
25279;SDS011;13225;47.804;12.116;2023-03-09T15:40:03;2.88;;;0.68;;
25279;SDS011;13225;47.804;12.116;2023-03-09T15:42:29;1.88;;;0.75;;
25279;SDS011;13225;47.804;12.116;2023-03-09T15:44:55;0.63;;;0.30;;
25279;SDS011;13225;47.804;12.116;2023-03-09T15:47:21;1.95;;;0.63;;
25279;SDS011;13225;47.804;12.116;2023-03-09T15:49:46;2.22;;;0.35;;
25279;SDS011;13225;47.804;12.116;2023-03-09T15:52:12;1.92;;;0.50;;
25279;SDS011;13225;47.804;12.116;2023-03-09T15:54:37;2.20;;;0.50;;
25279;SDS011;13225;47.804;12.116;2023-03-09T15:57:04;3.15;;;0.65;;
25279;SDS011;13225;47.804;12.116;2023-03-09T15:59:30;1.77;;;0.60;;
25279;SDS011;13225;47.804;12.116;2023-03-09T16:01:56;1.02;;;0.50;;
25279;SDS011;13225;47.804;12.116;2023-03-09T16:04:21;3.45;;;0.95;;
25279;SDS011;13225;47.804;12.116;2023-03-09T16:06:47;1.52;;;0.80;;
25279;SDS011;13225;47.804;12.116;2023-03-09T16:09:13;3.72;;;0.70;;